Главная страница
METAR-TAF:

METAR-TAF

Аэропорты :

Свольвер, Норвегия

широта: 68-15N, долгота: 014-40E, высота над уровнем моря: 0 м

Текущие метеонаблюдения

Эта сводка был подготовлена 44 минут назад, в 16:20 UTC
Ветер 9 Узел от восточный
Температура 16°C
Влажность 55%
Давление 1011 hPa
Видимость 10 км и более

METAR: ENSH 221620Z AUTO 08009KT 9999 NCD 16/07 Q1011 RMK WIND 0150FT /////KT

Время: 19:04 (17:04 UTC)

Прогноз

Эта сводка был подготовлена 9 часа и 4 минут назад, в 08:00 UTC
Прогноз действительный с 22-го 09 UTC до 22-го 13 UTC
Ветер 4 Узел от юго-юго-восточный
Видимость 10 км и более
Отдельные облака на высоте 4500 фута

TAF: ENSH 220800Z 2209/2213 16004KT 9999 SCT045

Метеонаблюдения и прогнозы для более 4000 аэропортов (сводки METAR и TAF).

Имеющиеся станции представлены на карте желтыми и красными точками.

Чтобы увидеть название станции, наведите на нее мышь.

Затем щелкните, чтобы увидеть метеонаблюдения и метеопрогнозы.

Управление картой: чтобы увеличить масштаб, щелкните зеленые кнопки с черным крестиком; чтобы уменьшить масштаб, щелкните зеленую кнопку с тире; для просмотра соседних карт щелкайте зеленые стрелки.


METAR-TAF: